createdAt,value
2019-03-16T00:00:19.197Z,11.16
2019-03-16T00:01:19.686Z,11.26
2019-03-16T00:02:20.444Z,11.22
2019-03-16T00:03:21.371Z,11.19
2019-03-16T00:04:22.210Z,11.1
2019-03-16T00:05:22.407Z,11.15
2019-03-16T00:06:22.910Z,11.15
2019-03-16T00:07:34.440Z,11.16
2019-03-16T00:08:34.980Z,11.1
2019-03-16T00:09:35.751Z,11.2
2019-03-16T00:10:36.797Z,11.25
2019-03-16T00:11:37.974Z,11.35
2019-03-16T00:12:38.845Z,11.33
2019-03-16T00:13:39.070Z,11.35
2019-03-16T00:14:40.109Z,11.33
2019-03-16T00:15:40.866Z,11.33
2019-03-16T00:16:41.621Z,11.3
2019-03-16T00:17:42.103Z,11.26
2019-03-16T00:18:42.771Z,11.23
2019-03-16T00:19:44.084Z,11.22
2019-03-16T00:20:44.287Z,11.19
2019-03-16T00:21:45.602Z,11.22
2019-03-16T00:22:46.080Z,11.3
2019-03-16T00:23:47.116Z,11.33
2019-03-16T00:24:47.875Z,11.27
2019-03-16T00:25:48.633Z,11.26
2019-03-16T00:26:49.108Z,11.25
2019-03-16T00:27:49.905Z,11.15
2019-03-16T00:28:50.400Z,11.23
2019-03-16T00:29:50.601Z,11.25
2019-03-16T00:30:51.380Z,11.19
2019-03-16T00:31:51.950Z,11.35
2019-03-16T00:32:52.429Z,11.33
2019-03-16T00:33:53.204Z,11.31
2019-03-16T00:34:53.421Z,11.34
2019-03-16T00:35:53.896Z,11.31
2019-03-16T00:36:54.931Z,11.33
2019-03-16T00:37:55.134Z,11.33
2019-03-16T00:38:56.118Z,11.35
2019-03-16T00:39:56.906Z,11.26
2019-03-16T00:40:57.944Z,11.31
2019-03-16T00:41:58.707Z,11.33
2019-03-16T00:42:59.187Z,11.2
2019-03-16T00:43:59.669Z,11.25
2019-03-16T00:45:00.359Z,11.25
2019-03-16T00:46:00.592Z,11.2
2019-03-16T00:47:01.070Z,11.2
2019-03-16T00:48:02.405Z,11.19
2019-03-16T00:49:02.883Z,11.16
2019-03-16T00:50:02.920Z,11.18
2019-03-16T00:51:03.679Z,11.15
2019-03-16T00:52:04.461Z,11.15
2019-03-16T00:53:04.934Z,11.1
2019-03-16T00:54:05.688Z,11.13
2019-03-16T00:55:06.817Z,11.12
2019-03-16T00:56:07.855Z,11.15
2019-03-16T00:57:08.704Z,11.13
2019-03-16T00:58:09.186Z,11.18
2019-03-16T00:59:10.416Z,11.15
2019-03-16T01:00:10.903Z,11.19
2019-03-16T01:01:12.026Z,11.2
2019-03-16T01:02:28.304Z,11.19
2019-03-16T01:02:34.381Z,11.2
2019-03-16T01:03:33.947Z,11.22
2019-03-16T01:04:34.430Z,11.33
2019-03-16T01:05:35.265Z,11.31
2019-03-16T01:06:36.017Z,11.2
2019-03-16T01:07:37.061Z,11.35
2019-03-16T01:08:37.385Z,11.25
2019-03-16T01:09:37.866Z,11.31
2019-03-16T01:10:38.345Z,11.33
2019-03-16T01:11:39.129Z,11.25
2019-03-16T01:12:39.891Z,11.22
2019-03-16T01:13:40.123Z,11.3
2019-03-16T01:14:40.609Z,11.19
2019-03-16T01:15:41.645Z,11.25
2019-03-16T01:16:42.422Z,11.2
2019-03-16T01:17:42.625Z,11.19
2019-03-16T01:18:43.391Z,11.19
2019-03-16T01:19:44.428Z,11.12
2019-03-16T01:20:45.194Z,11.1
2019-03-16T01:21:45.947Z,11.15
2019-03-16T01:22:46.447Z,11.07
2019-03-16T01:23:46.740Z,11.16
2019-03-16T01:24:47.526Z,11.05
2019-03-16T01:25:48.313Z,11.16
2019-03-16T01:26:48.890Z,11.15
2019-03-16T01:27:49.377Z,11.12
2019-03-16T01:28:49.905Z,11.13
2019-03-16T01:29:50.661Z,11.05
2019-03-16T01:30:51.989Z,11.04
2019-03-16T01:31:52.027Z,11.1
2019-03-16T01:32:52.782Z,11.02
2019-03-16T01:33:53.709Z,11.04
2019-03-16T01:34:54.468Z,10.87
2019-03-16T01:35:54.951Z,10.92
2019-03-16T01:36:55.762Z,10.9
2019-03-16T01:37:55.961Z,10.89
2019-03-16T01:38:56.750Z,10.83
2019-03-16T01:39:57.233Z,10.87
2019-03-16T01:40:58.269Z,10.95
2019-03-16T01:41:59.307Z,10.9
2019-03-16T01:42:59.793Z,10.95
2019-03-16T01:44:00.554Z,10.92
2019-03-16T01:45:01.160Z,10.95
2019-03-16T01:46:01.770Z,10.95
2019-03-16T01:47:02.804Z,11.02
2019-03-16T01:48:03.575Z,11
2019-03-16T01:49:04.055Z,11.07
2019-03-16T01:50:04.536Z,11.05
2019-03-16T01:51:05.016Z,11.05
2019-03-16T01:52:05.341Z,11.05
2019-03-16T01:53:05.541Z,10.89
2019-03-16T01:54:06.743Z,10.94
2019-03-16T01:55:07.220Z,10.94
2019-03-16T01:56:07.560Z,10.92
2019-03-16T01:57:08.957Z,10.97
2019-03-16T01:58:09.439Z,10.97
2019-03-16T01:59:10.198Z,10.94
2019-03-16T02:00:10.680Z,10.92
2019-03-16T02:01:11.994Z,10.95
2019-03-16T02:02:12.800Z,11
2019-03-16T02:03:13.280Z,10.92
2019-03-16T02:04:14.053Z,10.92
2019-03-16T02:05:15.384Z,11.02
2019-03-16T02:06:15.166Z,11
2019-03-16T02:07:16.226Z,11
2019-03-16T02:08:16.982Z,10.86
2019-03-16T02:09:17.741Z,11.01
2019-03-16T02:10:18.506Z,11.02
2019-03-16T02:11:18.709Z,11.05
2019-03-16T02:12:19.190Z,10.92
2019-03-16T02:13:19.954Z,11
2019-03-16T02:14:19.879Z,10.97
2019-03-16T02:15:20.079Z,10.89
2019-03-16T02:16:20.833Z,10.95
2019-03-16T02:17:21.592Z,10.94
2019-03-16T02:18:22.086Z,10.94
2019-03-16T02:19:22.654Z,10.86
2019-03-16T02:20:22.855Z,10.92
2019-03-16T02:21:23.610Z,11.01
2019-03-16T02:22:24.668Z,10.9
2019-03-16T02:23:24.979Z,10.86
2019-03-16T02:24:26.077Z,10.92
2019-03-16T02:25:26.112Z,10.9
2019-03-16T02:26:27.176Z,10.95
2019-03-16T02:27:27.479Z,10.94
2019-03-16T02:28:28.236Z,10.94
2019-03-16T02:29:28.714Z,10.94
2019-03-16T02:30:30.646Z,10.94
2019-03-16T02:31:31.522Z,10.9
2019-03-16T02:32:32.147Z,10.9
2019-03-16T02:33:32.228Z,10.9
2019-03-16T02:34:33.753Z,10.89
2019-03-16T02:35:34.826Z,10.92
2019-03-16T02:36:35.895Z,10.9
2019-03-16T02:37:36.963Z,10.98
2019-03-16T02:38:37.339Z,10.89
2019-03-16T02:39:38.210Z,10.97
2019-03-16T02:40:39.564Z,10.89
2019-03-16T02:41:40.892Z,11.01
2019-03-16T02:42:42.368Z,11.05
2019-03-16T02:43:42.811Z,11.04
2019-03-16T02:44:42.614Z,11.1
2019-03-16T02:45:43.711Z,11.13
2019-03-16T02:46:45.628Z,11.13
2019-03-16T02:47:46.626Z,11.16
2019-03-16T02:48:46.400Z,11.12
2019-03-16T02:49:47.761Z,11.08
2019-03-16T02:50:48.636Z,11.1
2019-03-16T02:51:49.134Z,11.02
2019-03-16T02:52:51.917Z,11.04
2019-03-16T02:53:52.533Z,11.02
2019-03-16T02:54:53.427Z,11
2019-03-16T02:55:54.488Z,11.04
2019-03-16T02:56:55.402Z,10.95
2019-03-16T02:57:55.718Z,10.95
2019-03-16T02:58:57.345Z,10.98
2019-03-16T02:59:57.401Z,10.98
2019-03-16T03:00:58.711Z,10.95
2019-03-16T03:01:59.609Z,10.95
2019-03-16T03:03:00.218Z,10.94
2019-03-16T03:04:00.560Z,10.97
2019-03-16T03:05:01.486Z,11.04
2019-03-16T03:06:02.880Z,11.1
2019-03-16T03:07:03.123Z,11.02
2019-03-16T03:08:03.483Z,11.08
2019-03-16T03:09:04.594Z,11.07
2019-03-16T03:10:05.658Z,11.13
2019-03-16T03:11:05.807Z,11.16
2019-03-16T03:12:06.453Z,11.12
2019-03-16T03:13:07.767Z,11.08
2019-03-16T03:13:17.553Z,11.1
2019-03-16T03:14:18.082Z,10.98
2019-03-16T03:15:18.413Z,11.02
2019-03-16T03:16:19.189Z,11.04
2019-03-16T03:17:20.306Z,11
2019-03-16T03:18:21.216Z,11
2019-03-16T03:19:21.541Z,11
2019-03-16T03:20:21.583Z,10.94
2019-03-16T03:21:22.197Z,10.87
2019-03-16T03:22:23.531Z,10.98
2019-03-16T03:23:24.437Z,10.87
2019-03-16T03:24:24.816Z,10.84
2019-03-16T03:25:25.334Z,10.86
2019-03-16T03:26:26.776Z,10.89
2019-03-16T03:27:26.552Z,10.94
2019-03-16T03:28:27.434Z,10.97
2019-03-16T03:29:28.208Z,10.92
2019-03-16T03:30:30.158Z,10.92
2019-03-16T03:31:30.811Z,10.86
2019-03-16T03:32:31.204Z,10.92
2019-03-16T03:34:04.290Z,10.97
2019-03-16T03:35:03.861Z,10.97
2019-03-16T03:36:04.389Z,11.01
2019-03-16T03:37:05.158Z,10.95
2019-03-16T03:38:06.380Z,10.97
2019-03-16T03:39:06.706Z,11.02
2019-03-16T03:40:07.795Z,10.97
2019-03-16T03:41:09.152Z,10.94
2019-03-16T03:42:10.035Z,11.08
2019-03-16T03:43:11.388Z,11.08
2019-03-16T03:44:12.284Z,11.01
2019-03-16T03:45:13.013Z,11.02
2019-03-16T03:46:13.830Z,11.07
2019-03-16T03:47:14.588Z,11.15
2019-03-16T03:48:16.192Z,11.12
2019-03-16T03:49:16.600Z,11.08
2019-03-16T03:50:17.676Z,11.07
2019-03-16T03:51:19.005Z,10.98
2019-03-16T03:52:19.881Z,10.98
2019-03-16T03:53:20.219Z,10.89
2019-03-16T03:54:20.990Z,10.86
2019-03-16T03:55:21.853Z,10.87
2019-03-16T03:56:23.314Z,10.92
2019-03-16T03:57:24.755Z,10.94
2019-03-16T03:58:25.222Z,10.92
2019-03-16T03:59:26.050Z,10.89
2019-03-16T04:00:27.115Z,11.02
2019-03-16T04:01:28.143Z,10.98
2019-03-16T04:02:28.629Z,11.02
2019-03-16T04:03:29.725Z,10.94
2019-03-16T04:04:30.621Z,10.97
2019-03-16T04:05:31.251Z,10.92
2019-03-16T04:06:32.025Z,10.95
2019-03-16T04:07:32.715Z,10.95
2019-03-16T04:08:33.595Z,11.01
2019-03-16T04:09:35.806Z,10.98
2019-03-16T04:10:36.739Z,11.08
2019-03-16T04:11:36.540Z,11
2019-03-16T04:12:37.219Z,11.01
2019-03-16T04:13:37.565Z,10.92
2019-03-16T04:14:37.905Z,10.95
2019-03-16T04:15:38.479Z,10.89
2019-03-16T04:16:39.857Z,10.97
2019-03-16T04:17:40.881Z,10.9
2019-03-16T04:18:41.798Z,10.94
2019-03-16T04:19:41.578Z,10.9
2019-03-16T04:20:42.411Z,10.89
2019-03-16T04:21:44.305Z,11
2019-03-16T04:22:45.385Z,10.94
2019-03-16T04:23:46.168Z,11.04
2019-03-16T04:24:47.473Z,11.05
2019-03-16T04:25:48.258Z,10.98
2019-03-16T04:26:48.856Z,11.1
2019-03-16T04:27:49.210Z,11.07
2019-03-16T04:28:50.094Z,11.05
2019-03-16T04:29:51.152Z,11.07
2019-03-16T04:30:52.189Z,11.01
2019-03-16T04:31:53.375Z,11.04
2019-03-16T04:32:53.146Z,11.02
2019-03-16T04:33:53.921Z,10.9
2019-03-16T04:34:54.985Z,10.9
2019-03-16T04:35:55.651Z,10.9
2019-03-16T04:36:56.565Z,11
2019-03-16T04:37:57.443Z,10.87
2019-03-16T04:38:58.206Z,10.98
2019-03-16T04:39:59.535Z,10.98
2019-03-16T04:41:00.410Z,10.87
2019-03-16T04:42:00.669Z,10.94
2019-03-16T04:43:01.234Z,10.89
2019-03-16T04:44:02.071Z,10.92
2019-03-16T04:45:03.388Z,10.95
2019-03-16T04:46:04.248Z,10.86
2019-03-16T04:47:05.287Z,10.95
2019-03-16T04:48:06.058Z,10.86
2019-03-16T04:49:06.541Z,10.86
2019-03-16T04:50:07.055Z,10.89
2019-03-16T04:51:07.254Z,10.86
2019-03-16T04:52:08.344Z,10.92
2019-03-16T04:53:08.824Z,10.97
2019-03-16T04:54:09.029Z,10.89
2019-03-16T04:55:10.075Z,10.87
2019-03-16T04:56:10.558Z,10.92
2019-03-16T04:57:11.986Z,10.89
2019-03-16T04:58:12.467Z,10.95
2019-03-16T04:59:13.499Z,10.9
2019-03-16T05:00:14.062Z,10.87
2019-03-16T05:01:14.554Z,11.05
2019-03-16T05:02:15.865Z,11.05
2019-03-16T05:03:16.622Z,11.04
2019-03-16T05:04:16.820Z,10.97
2019-03-16T05:05:17.291Z,10.92
2019-03-16T05:06:17.778Z,10.98
2019-03-16T05:07:18.531Z,11.02
2019-03-16T05:08:19.570Z,11.07
2019-03-16T05:09:20.320Z,11.1
2019-03-16T05:10:21.077Z,11.01
2019-03-16T05:11:21.547Z,11.01
2019-03-16T05:12:21.739Z,11.01
2019-03-16T05:13:22.772Z,11.01
2019-03-16T05:14:23.520Z,10.98
2019-03-16T05:15:24.561Z,11.02
2019-03-16T05:16:25.030Z,11.07
2019-03-16T05:17:25.788Z,11.07
2019-03-16T05:18:26.869Z,11
2019-03-16T05:19:27.911Z,11.08
2019-03-16T05:20:27.945Z,10.98
2019-03-16T05:21:28.980Z,11.08
2019-03-16T05:22:29.451Z,11.07
2019-03-16T05:23:29.650Z,11.13
2019-03-16T05:24:30.683Z,11.04
2019-03-16T05:25:31.435Z,11.04
2019-03-16T05:26:31.631Z,11
2019-03-16T05:27:32.104Z,11.04
2019-03-16T05:28:33.220Z,11
2019-03-16T05:29:34.261Z,11.01
2019-03-16T05:30:34.737Z,11.1
2019-03-16T05:31:35.492Z,11.1
2019-03-16T05:32:36.799Z,11.15
2019-03-16T05:33:38.218Z,11.05
2019-03-16T05:34:38.242Z,10.98
2019-03-16T05:35:39.420Z,11.02
2019-03-16T05:36:40.198Z,11
2019-03-16T05:37:41.242Z,10.94
2019-03-16T05:38:42.335Z,10.84
2019-03-16T05:39:42.662Z,10.86
2019-03-16T05:40:43.138Z,10.97
2019-03-16T05:41:43.894Z,11.02
2019-03-16T05:42:44.650Z,11.07
2019-03-16T05:43:45.509Z,11.12
2019-03-16T05:44:45.709Z,11.12
2019-03-16T05:45:45.904Z,11.01
2019-03-16T05:46:46.927Z,11.13
2019-03-16T05:47:47.405Z,11.2
2019-03-16T05:48:47.882Z,11.23
2019-03-16T05:49:48.914Z,11.22
2019-03-16T05:50:49.425Z,11.22
2019-03-16T05:51:50.735Z,11.19
2019-03-16T05:52:51.310Z,11.18
2019-03-16T05:53:52.454Z,11.16
2019-03-16T05:54:52.930Z,11.27
2019-03-16T05:55:54.305Z,11.25
2019-03-16T05:56:54.500Z,11.31
2019-03-16T05:57:54.697Z,11.31
2019-03-16T05:58:55.452Z,11.33
2019-03-16T05:59:56.209Z,11.33
2019-03-16T06:00:56.960Z,11.34
2019-03-16T06:01:57.436Z,11.27
2019-03-16T06:02:58.186Z,11.35
2019-03-16T06:03:58.384Z,11.38
2019-03-16T06:05:12.488Z,11.27
2019-03-16T06:06:09.495Z,11.35
2019-03-16T06:07:10.901Z,11.41
2019-03-16T06:08:11.416Z,11.43
2019-03-16T06:09:12.530Z,11.45
2019-03-16T06:10:13.285Z,11.43
2019-03-16T06:11:13.765Z,11.44
2019-03-16T06:12:14.823Z,11.41
2019-03-16T06:13:15.310Z,11.37
2019-03-16T06:14:16.069Z,11.35
2019-03-16T06:15:16.917Z,11.34
2019-03-16T06:16:17.966Z,11.33
2019-03-16T06:17:18.564Z,11.37
2019-03-16T06:18:18.599Z,11.37
2019-03-16T06:19:19.637Z,11.41
2019-03-16T06:20:20.116Z,11.43
2019-03-16T06:21:20.928Z,11.51
2019-03-16T06:22:21.399Z,11.4
2019-03-16T06:23:23.973Z,11.45
2019-03-16T06:24:22.284Z,11.35
2019-03-16T06:25:23.344Z,11.34
2019-03-16T06:26:24.170Z,11.43
2019-03-16T06:27:24.370Z,11.41
2019-03-16T06:28:25.199Z,11.26
2019-03-16T06:29:26.306Z,11.31
2019-03-16T06:30:27.126Z,11.26
2019-03-16T06:31:27.907Z,11.27
2019-03-16T06:32:28.669Z,11.27
2019-03-16T06:33:28.873Z,11.27
2019-03-16T06:34:29.363Z,11.2
2019-03-16T06:35:30.778Z,11.19
2019-03-16T06:36:32.124Z,11.33
2019-03-16T06:37:32.616Z,11.2
2019-03-16T06:38:33.924Z,11.23
2019-03-16T06:39:34.686Z,11.2
2019-03-16T06:40:35.166Z,11.12
2019-03-16T06:41:35.925Z,11.01
2019-03-16T06:42:36.680Z,11.01
2019-03-16T06:43:38.214Z,11.02
2019-03-16T06:44:37.415Z,11.01
2019-03-16T06:45:39.004Z,10.97
2019-03-16T06:46:39.949Z,11.05
2019-03-16T06:47:40.517Z,10.95
2019-03-16T06:48:40.992Z,11.07
2019-03-16T06:49:41.477Z,11.08
2019-03-16T06:50:42.233Z,11.12
2019-03-16T06:51:43.002Z,11.12
2019-03-16T06:52:44.044Z,11.2
2019-03-16T06:53:44.567Z,11.2
2019-03-16T06:54:44.934Z,11.26
2019-03-16T06:55:45.137Z,11.27
2019-03-16T06:56:46.335Z,11.26
2019-03-16T06:57:46.815Z,11.37
2019-03-16T06:58:47.296Z,11.34
2019-03-16T06:59:47.803Z,11.4
2019-03-16T07:00:48.654Z,11.37
2019-03-16T07:01:49.423Z,11.4
2019-03-16T07:02:50.177Z,11.35
2019-03-16T07:03:50.674Z,11.44
2019-03-16T07:04:51.184Z,11.37
2019-03-16T07:05:51.986Z,11.45
2019-03-16T07:06:53.036Z,11.41
2019-03-16T07:07:53.795Z,11.56
2019-03-16T07:08:54.548Z,11.56
2019-03-16T07:09:54.749Z,11.59
2019-03-16T07:10:55.227Z,11.58
2019-03-16T07:11:55.527Z,11.59
2019-03-16T07:12:56.354Z,11.65
2019-03-16T07:13:57.113Z,11.74
2019-03-16T07:14:57.596Z,11.67
2019-03-16T07:15:58.365Z,11.67
2019-03-16T07:17:03.717Z,11.76
2019-03-16T07:18:04.475Z,11.74
2019-03-16T07:19:05.805Z,11.68
2019-03-16T07:20:06.296Z,11.78
2019-03-16T07:21:06.496Z,11.76
2019-03-16T07:22:06.977Z,11.83
2019-03-16T07:23:07.453Z,11.86
2019-03-16T07:24:08.252Z,11.85
2019-03-16T07:25:09.293Z,11.85
2019-03-16T07:26:16.203Z,11.81
2019-03-16T07:26:20.166Z,11.81
2019-03-16T07:27:27.611Z,11.8
2019-03-16T07:27:30.698Z,11.81
2019-03-16T07:28:31.075Z,11.85
2019-03-16T07:29:32.108Z,11.83
2019-03-16T07:30:32.588Z,11.91
2019-03-16T07:31:33.727Z,11.88
2019-03-16T07:32:34.513Z,12
2019-03-16T07:33:34.994Z,12
2019-03-16T07:34:35.754Z,12.08
2019-03-16T07:35:36.246Z,12.17
2019-03-16T07:36:37.570Z,12.2
2019-03-16T07:37:38.608Z,12.23
2019-03-16T07:38:38.536Z,12.36
2019-03-16T07:39:38.734Z,12.39
2019-03-16T07:40:40.050Z,12.51
2019-03-16T07:41:40.911Z,12.58
2019-03-16T07:42:41.234Z,12.63
2019-03-16T07:43:42.036Z,12.75
2019-03-16T07:44:42.795Z,12.9
2019-03-16T07:45:44.110Z,13.05
2019-03-16T07:46:44.310Z,13.33
2019-03-16T07:47:45.344Z,13.3
2019-03-16T07:48:44.993Z,13.42
2019-03-16T07:49:45.488Z,13.98
2019-03-16T07:50:46.321Z,14.49
2019-03-16T07:51:47.370Z,14.97
2019-03-16T07:52:47.867Z,14.61
2019-03-16T07:53:48.369Z,14.41
2019-03-16T07:54:48.875Z,14.52
2019-03-16T07:55:49.915Z,14.58
2019-03-16T07:56:51.233Z,14.62
2019-03-16T07:57:51.435Z,14.73
2019-03-16T07:58:52.665Z,14.87
2019-03-16T07:59:53.790Z,15
2019-03-16T08:00:54.907Z,14.93
2019-03-16T08:01:55.944Z,14.94
2019-03-16T08:02:56.267Z,15.18
2019-03-16T08:03:57.037Z,15.3
2019-03-16T08:04:57.522Z,15.05
2019-03-16T08:05:58.288Z,15.11
2019-03-16T08:06:58.774Z,15.04
2019-03-16T08:07:59.338Z,14.9
2019-03-16T08:09:00.803Z,14.73
2019-03-16T08:10:04.602Z,14.43
2019-03-16T08:11:04.812Z,14.38
2019-03-16T08:12:05.058Z,14.28
2019-03-16T08:13:05.835Z,14
2019-03-16T08:14:06.378Z,14.07
2019-03-16T08:15:07.518Z,14.04
2019-03-16T08:16:07.280Z,13.98
2019-03-16T08:17:07.807Z,13.78
2019-03-16T08:18:09.579Z,13.64
2019-03-16T08:19:10.345Z,13.76
2019-03-16T08:20:10.551Z,13.79
2019-03-16T08:21:11.125Z,13.68
2019-03-16T08:22:12.735Z,13.89
2019-03-16T08:23:12.783Z,13.87
2019-03-16T08:24:12.995Z,13.86
2019-03-16T08:25:13.853Z,13.82
2019-03-16T08:26:15.164Z,13.83
2019-03-16T08:27:15.739Z,13.97
2019-03-16T08:28:15.949Z,13.87
2019-03-16T08:29:16.619Z,14.05
2019-03-16T08:30:18.062Z,14.3
2019-03-16T08:31:18.408Z,14.26
2019-03-16T08:32:19.169Z,14.59
2019-03-16T08:33:19.218Z,15.02
2019-03-16T08:34:20.342Z,14.99
2019-03-16T08:35:21.382Z,14.55
2019-03-16T08:36:22.434Z,14.49
2019-03-16T08:37:22.942Z,15.15
2019-03-16T08:38:23.992Z,15.36
2019-03-16T08:39:24.929Z,15.72
2019-03-16T08:40:25.705Z,15.94
2019-03-16T08:41:26.257Z,16.17
2019-03-16T08:42:26.742Z,16.21
2019-03-16T08:43:27.527Z,16.36
2019-03-16T08:44:28.291Z,16.09
2019-03-16T08:45:28.770Z,15.8
2019-03-16T08:46:28.976Z,15.78
2019-03-16T08:47:33.052Z,15.84
2019-03-16T08:48:33.855Z,16.17
2019-03-16T08:49:34.623Z,16.16
2019-03-16T08:50:35.394Z,16.39
2019-03-16T08:51:35.600Z,16.41
2019-03-16T08:52:36.093Z,16.37
2019-03-16T08:53:36.579Z,16.16
2019-03-16T08:54:37.352Z,16.17
2019-03-16T08:55:37.559Z,16.34
2019-03-16T08:56:38.323Z,16.41
2019-03-16T08:57:39.089Z,16.62
2019-03-16T08:58:40.194Z,17.37
2019-03-16T08:59:40.703Z,17.53
2019-03-16T09:00:40.992Z,17.75
2019-03-16T09:01:41.773Z,17.88
2019-03-16T09:02:42.845Z,18.18
2019-03-16T09:03:45.243Z,18
2019-03-16T09:04:45.993Z,18
2019-03-16T09:05:46.644Z,17.91
2019-03-16T09:06:47.161Z,17.5
2019-03-16T09:07:47.649Z,17.54
2019-03-16T09:08:48.425Z,17.49
2019-03-16T09:09:49.381Z,17.44
2019-03-16T09:10:50.218Z,17.41
2019-03-16T09:11:52.777Z,17.32
2019-03-16T09:12:56.328Z,17.42
2019-03-16T09:13:56.821Z,17.44
2019-03-16T09:14:57.658Z,17.31
2019-03-16T09:15:58.705Z,17.54
2019-03-16T09:16:58.950Z,17.37
2019-03-16T09:17:59.717Z,17.22
2019-03-16T09:19:00.501Z,16.82
2019-03-16T09:20:01.897Z,16.79
2019-03-16T09:21:02.661Z,16.86
2019-03-16T09:22:03.480Z,16.61
2019-03-16T09:23:04.413Z,16.8
2019-03-16T09:24:04.461Z,16.66
2019-03-16T09:25:05.232Z,16.57
2019-03-16T09:26:06.286Z,16.74
2019-03-16T09:27:06.777Z,16.54
2019-03-16T09:28:19.818Z,16.06
2019-03-16T09:29:16.052Z,16.1
2019-03-16T09:30:14.566Z,16.37
2019-03-16T09:31:14.619Z,16.65
2019-03-16T09:32:15.384Z,16.62
2019-03-16T09:33:17.169Z,16.58
2019-03-16T09:34:18.318Z,16.64
2019-03-16T09:35:18.804Z,16.84
2019-03-16T09:36:20.139Z,16.77
2019-03-16T09:37:20.918Z,16.91
2019-03-16T09:38:21.960Z,16.59
2019-03-16T09:39:22.728Z,16.39
2019-03-16T09:40:23.737Z,16.4
2019-03-16T09:41:24.228Z,16.65
2019-03-16T09:42:25.040Z,16.77
2019-03-16T09:43:25.805Z,16.79
2019-03-16T09:44:26.296Z,16.98
2019-03-16T09:45:26.790Z,17.07
2019-03-16T09:46:26.832Z,17.13
2019-03-16T09:47:28.157Z,17.23
2019-03-16T09:48:29.014Z,17.23
2019-03-16T09:49:29.113Z,17.39
2019-03-16T09:50:30.224Z,17.19
2019-03-16T09:51:29.998Z,17.42
2019-03-16T09:52:30.208Z,17.56
2019-03-16T09:53:30.973Z,17.54
2019-03-16T09:54:31.740Z,17.53
2019-03-16T09:55:35.687Z,17.38
2019-03-16T09:56:32.926Z,17.46
2019-03-16T09:57:33.972Z,17.63
2019-03-16T09:58:34.564Z,17.56
2019-03-16T09:59:35.379Z,17.56
2019-03-16T10:00:36.080Z,17.76
2019-03-16T10:01:37.126Z,17.66
2019-03-16T10:02:37.628Z,17.37
2019-03-16T10:03:38.135Z,17.19
2019-03-16T10:04:39.459Z,17.28
2019-03-16T10:05:40.290Z,17.3
2019-03-16T10:06:41.091Z,17.24
2019-03-16T10:07:45.534Z,17.17
2019-03-16T10:07:55.194Z,17.24
2019-03-16T10:08:03.062Z,17.24
2019-03-16T10:09:07.250Z,17.22
2019-03-16T10:09:16.503Z,17.22
2019-03-16T10:10:14.478Z,17.37
2019-03-16T10:11:15.534Z,17.76
2019-03-16T10:12:16.304Z,17.79
2019-03-16T10:13:16.828Z,17.91
2019-03-16T10:14:17.872Z,17.47
2019-03-16T10:15:18.167Z,17.63
2019-03-16T10:16:18.737Z,17.75
2019-03-16T10:17:19.790Z,17.73
2019-03-16T10:18:20.275Z,17.71
2019-03-16T10:19:21.044Z,17.59
2019-03-16T10:20:21.976Z,17.69
2019-03-16T10:21:21.820Z,17.63
2019-03-16T10:22:22.306Z,17.37
2019-03-16T10:23:23.076Z,17.19
2019-03-16T10:24:24.122Z,17.13
2019-03-16T10:25:24.176Z,17.35
2019-03-16T10:26:24.667Z,17.49
2019-03-16T10:27:25.431Z,17.68
2019-03-16T10:28:26.013Z,17.71
2019-03-16T10:29:27.059Z,17.68
2019-03-16T10:30:26.746Z,17.65
2019-03-16T10:31:27.237Z,17.66
2019-03-16T10:32:28.284Z,17.87
2019-03-16T10:33:29.057Z,17.88
2019-03-16T10:34:29.826Z,18
2019-03-16T10:35:30.595Z,17.9
2019-03-16T10:36:31.165Z,18.09
2019-03-16T10:37:31.654Z,18.27
2019-03-16T10:38:32.147Z,18.11
2019-03-16T10:39:32.926Z,17.94
2019-03-16T10:40:33.691Z,18.12
2019-03-16T10:41:34.462Z,18.18
2019-03-16T10:42:35.254Z,18.19
2019-03-16T10:43:36.021Z,18
2019-03-16T10:44:36.540Z,17.9
2019-03-16T10:45:37.073Z,18.06
2019-03-16T10:46:37.396Z,18.02
2019-03-16T10:47:37.887Z,17.94
2019-03-16T10:48:38.932Z,17.78
2019-03-16T10:49:39.422Z,17.9
2019-03-16T10:50:39.412Z,17.86
2019-03-16T10:51:40.193Z,17.95
2019-03-16T10:52:40.857Z,17.87
2019-03-16T10:53:41.348Z,17.72
2019-03-16T10:54:41.562Z,17.52
2019-03-16T10:55:42.334Z,17.42
2019-03-16T10:56:43.102Z,17.68
2019-03-16T10:57:43.590Z,17.73
2019-03-16T10:58:58.223Z,18.02
2019-03-16T10:59:54.726Z,18.03
2019-03-16T11:00:55.237Z,18.02
2019-03-16T11:01:55.451Z,18.18
2019-03-16T11:02:55.938Z,18.16
2019-03-16T11:03:56.149Z,18.15
2019-03-16T11:04:56.929Z,18.23
2019-03-16T11:05:57.975Z,18.23
2019-03-16T11:06:58.468Z,18.27
2019-03-16T11:07:58.691Z,17.95
2019-03-16T11:08:59.180Z,18.06
2019-03-16T11:09:59.561Z,18.15
2019-03-16T11:11:00.901Z,18.16
2019-03-16T11:12:01.673Z,18.31
2019-03-16T11:13:01.814Z,18.45
2019-03-16T11:14:02.138Z,18.42
2019-03-16T11:15:02.630Z,18.13
2019-03-16T11:16:03.409Z,18.18
2019-03-16T11:17:04.187Z,18.13
2019-03-16T11:18:04.968Z,18.23
2019-03-16T11:19:06.326Z,18.13
2019-03-16T11:20:06.930Z,18.03
2019-03-16T11:21:07.978Z,18.02
2019-03-16T11:22:08.746Z,18.13
2019-03-16T11:23:09.532Z,18.06
2019-03-16T11:24:10.880Z,18.02
2019-03-16T11:25:11.929Z,18.13
2019-03-16T11:26:12.497Z,17.98
2019-03-16T11:27:12.987Z,18.16
2019-03-16T11:28:13.928Z,18.24
2019-03-16T11:29:14.728Z,18.24
2019-03-16T11:30:15.282Z,18.28
2019-03-16T11:31:16.133Z,18.34
2019-03-16T11:32:16.359Z,18.42
2019-03-16T11:33:16.573Z,18.46
2019-03-16T11:34:17.066Z,18.55
2019-03-16T11:35:17.833Z,18.58
2019-03-16T11:36:18.391Z,18.45
2019-03-16T11:37:18.880Z,18.3
2019-03-16T11:38:19.648Z,18.26
2019-03-16T11:39:20.416Z,18.28
2019-03-16T11:40:21.476Z,18.45
2019-03-16T11:41:21.688Z,18.36
2019-03-16T11:42:22.182Z,18.53
2019-03-16T11:43:23.239Z,18.53
2019-03-16T11:44:24.007Z,18.55
2019-03-16T11:45:24.776Z,18.57
2019-03-16T11:46:25.538Z,18.76
2019-03-16T11:47:26.028Z,18.68
2019-03-16T11:48:26.522Z,18.78
2019-03-16T11:49:26.729Z,18.78
2019-03-16T11:50:27.190Z,18.79
2019-03-16T11:51:27.410Z,18.79
2019-03-16T11:52:28.190Z,18.74
2019-03-16T11:53:28.988Z,18.81
2019-03-16T11:54:29.032Z,18.86
2019-03-16T11:55:29.540Z,18.94
2019-03-16T11:56:29.784Z,19
2019-03-16T11:57:30.631Z,18.94
2019-03-16T11:58:31.135Z,18.89
2019-03-16T11:59:31.626Z,18.88
2019-03-16T12:00:32.136Z,18.96
2019-03-16T12:01:32.759Z,19.11
2019-03-16T12:02:33.251Z,19.15
2019-03-16T12:03:34.037Z,19.19
2019-03-16T12:04:34.818Z,19.19
2019-03-16T12:05:35.307Z,19.08
2019-03-16T12:06:36.076Z,19.11
2019-03-16T12:07:36.921Z,19.05
2019-03-16T12:08:40.954Z,18.89
2019-03-16T12:09:41.724Z,19.05
2019-03-16T12:10:41.657Z,18.98
2019-03-16T12:11:42.223Z,18.96
2019-03-16T12:12:42.724Z,18.85
2019-03-16T12:13:45.251Z,18.97
2019-03-16T12:14:47.665Z,19.11
2019-03-16T12:15:47.809Z,19.2
2019-03-16T12:16:48.636Z,19.34
2019-03-16T12:17:49.147Z,19.38
2019-03-16T12:18:50.221Z,19.55
2019-03-16T12:19:50.985Z,19.37
2019-03-16T12:20:52.102Z,19.42
2019-03-16T12:21:52.867Z,19.32
2019-03-16T12:22:53.642Z,19.22
2019-03-16T12:23:54.127Z,18.92
2019-03-16T12:24:55.167Z,18.79
2019-03-16T12:25:55.654Z,18.83
2019-03-16T12:26:56.416Z,18.73
2019-03-16T12:27:57.179Z,18.64
2019-03-16T12:28:57.501Z,18.7
2019-03-16T12:29:58.558Z,18.73
2019-03-16T12:30:59.156Z,18.91
2019-03-16T12:31:59.377Z,18.81
2019-03-16T12:33:00.705Z,18.79
2019-03-16T12:34:01.290Z,18.71
2019-03-16T12:35:01.501Z,18.66
2019-03-16T12:36:02.271Z,18.67
2019-03-16T12:37:03.039Z,18.71
2019-03-16T12:38:03.383Z,18.91
2019-03-16T12:39:04.433Z,19.08
2019-03-16T12:40:05.294Z,19.08
2019-03-16T12:41:06.117Z,19.12
2019-03-16T12:42:06.886Z,19.19
2019-03-16T12:43:07.215Z,19.3
2019-03-16T12:44:07.534Z,19.29
2019-03-16T12:45:07.775Z,19.15
2019-03-16T12:46:08.547Z,19.08
2019-03-16T12:47:09.032Z,19.04
2019-03-16T12:48:09.523Z,19
2019-03-16T12:49:10.299Z,18.88
2019-03-16T12:50:10.915Z,19.04
2019-03-16T12:51:12.223Z,18.96
2019-03-16T12:52:13.267Z,18.89
2019-03-16T12:53:13.823Z,18.86
2019-03-16T12:54:14.179Z,18.82
2019-03-16T12:55:14.943Z,18.71
2019-03-16T12:56:15.719Z,18.7
2019-03-16T12:57:16.204Z,18.67
2019-03-16T12:58:16.414Z,18.57
2019-03-16T12:59:17.184Z,18.48
2019-03-16T13:00:18.093Z,18.33
2019-03-16T13:01:18.076Z,18.3
2019-03-16T13:02:18.879Z,18.3